Time;durP1;ratioP1;P1;durP2;ratioP2;P2;SDS_P1;SDS_P2;PMS_P1;PMS_P2;Temp;Humidity;BMP_temperature;BMP_pressure;BME280_temperature;BME280_humidity;BME280_pressure;Samples;Min_cycle;Max_cycle;Signal;HPM_P1;HPM_P2
2022/12/13 00:00:29;;;;;;;45.03;15.90;;;;;;;2.04;100.00;101094.53;5072886;28;19924;-53
2022/12/13 00:02:54;;;;;;;41.53;16.37;;;;;;;2.28;100.00;101101.28;5067025;28;20036;-49
2022/12/13 00:05:20;;;;;;;42.70;16.13;;;;;;;2.34;100.00;101098.13;5070247;28;20353;-49
2022/12/13 00:07:45;;;;;;;34.63;12.70;;;;;;;2.38;100.00;101094.25;5071286;28;20037;-50
2022/12/13 00:10:11;;;;;;;40.97;18.20;;;;;;;2.30;100.00;101094.06;5069782;28;20048;-50
2022/12/13 00:12:36;;;;;;;37.47;12.97;;;;;;;2.40;100.00;101092.28;5068440;28;20092;-54
2022/12/13 00:15:02;;;;;;;49.50;18.90;;;;;;;2.30;100.00;101094.06;5069922;28;20052;-50
2022/12/13 00:17:30;;;;;;;41.55;17.63;;;;;;;2.38;100.00;101083.69;5067921;28;20037;-52
2022/12/13 00:19:56;;;;;;;45.78;17.88;;;;;;;2.36;100.00;101085.63;5075139;28;20041;-51
2022/12/13 00:22:21;;;;;;;38.05;14.48;;;;;;;2.38;100.00;101090.75;5069932;28;20055;-50
2022/12/13 00:24:47;;;;;;;43.00;17.85;;;;;;;2.34;100.00;101084.94;5067146;28;20040;-53
2022/12/13 00:27:12;;;;;;;33.80;12.70;;;;;;;2.34;100.00;101082.28;5072617;28;20093;-51
2022/12/13 00:29:38;;;;;;;48.35;17.63;;;;;;;2.24;100.00;101081.41;5069446;28;20055;-51
2022/12/13 00:32:04;;;;;;;36.20;13.37;;;;;;;2.33;100.00;101080.63;5068542;28;20140;-54
2022/12/13 00:34:29;;;;;;;42.42;17.23;;;;;;;2.31;100.00;101079.91;5071936;28;20037;-49
2022/12/13 00:36:57;;;;;;;33.73;13.30;;;;;;;2.23;100.00;101074.47;5068059;28;20187;-51
2022/12/13 00:39:24;;;;;;;43.83;16.60;;;;;;;2.29;100.00;101073.91;5069530;28;20033;-50
2022/12/13 00:41:50;;;;;;;44.70;17.60;;;;;;;2.30;100.00;101080.88;5073821;28;20097;-47
2022/12/13 00:44:18;;;;;;;48.20;17.88;;;;;;;2.14;100.00;101078.75;5066616;28;20037;-51
2022/12/13 00:46:44;;;;;;;44.67;17.98;;;;;;;2.29;100.00;101077.41;5079095;28;20028;-49
2022/12/13 00:49:11;;;;;;;42.75;18.15;;;;;;;2.26;100.00;101075.03;5072692;28;20063;-48
2022/12/13 00:51:36;;;;;;;43.70;18.25;;;;;;;2.28;100.00;101080.16;5079950;28;20025;-52
2022/12/13 00:54:02;;;;;;;42.40;17.10;;;;;;;2.20;100.00;101077.38;5080372;28;20039;-48
2022/12/13 00:56:30;;;;;;;40.38;16.02;;;;;;;2.23;100.00;101071.81;5076942;28;20042;-54
2022/12/13 00:58:56;;;;;;;40.78;17.13;;;;;;;2.03;100.00;101077.03;5075823;28;20041;-53
2022/12/13 01:01:25;;;;;;;40.88;17.55;;;;;;;2.19;100.00;101071.28;5077300;28;20028;-48
2022/12/13 01:03:56;;;;;;;43.40;18.25;;;;;;;2.13;100.00;101069.16;5079433;28;20029;-50
2022/12/13 01:06:27;;;;;;;44.45;17.70;;;;;;;2.19;100.00;101068.66;5076523;28;20033;-48
2022/12/13 01:08:54;;;;;;;43.38;19.05;;;;;;;2.17;100.00;101073.19;5080991;28;20093;-50
2022/12/13 01:11:20;;;;;;;48.63;17.15;;;;;;;2.18;100.00;101071.41;5073709;28;20021;-50
2022/12/13 01:13:45;;;;;;;45.07;18.80;;;;;;;2.19;100.00;101076.56;5077453;28;20032;-52
2022/12/13 01:16:12;;;;;;;39.00;14.90;;;;;;;2.18;100.00;101080.13;5076110;28;20060;-53
2022/12/13 01:18:39;;;;;;;47.63;18.40;;;;;;;2.11;100.00;101079.00;5078189;28;20273;-48
2022/12/13 01:21:12;;;;;;;42.13;17.83;;;;;;;2.18;100.00;101071.41;5075663;28;20040;-50
2022/12/13 01:23:37;;;;;;;43.15;17.33;;;;;;;2.19;100.00;101065.16;5081248;28;20036;-53
2022/12/13 01:26:09;;;;;;;62.83;18.77;;;;;;;2.11;100.00;101065.81;5076631;28;20108;-48
2022/12/13 01:28:35;;;;;;;53.85;18.08;;;;;;;2.14;100.00;101060.28;5075110;28;20056;-51
2022/12/13 01:31:03;;;;;;;49.05;19.30;;;;;;;2.10;100.00;101066.78;5077551;28;20047;-52
2022/12/13 01:33:30;;;;;;;41.75;17.77;;;;;;;2.18;100.00;101071.41;5075434;28;20036;-49
2022/12/13 01:36:01;;;;;;;45.42;18.33;;;;;;;2.09;100.00;101073.88;5082709;28;20063;-48
2022/12/13 01:38:27;;;;;;;43.28;18.02;;;;;;;2.02;100.00;101069.28;5079423;28;20033;-52
2022/12/13 01:40:56;;;;;;;48.35;18.85;;;;;;;1.95;100.00;101068.97;5077958;28;20037;-48
2022/12/13 01:43:25;;;;;;;46.03;19.05;;;;;;;1.76;100.00;101060.00;5076149;28;20044;-50
2022/12/13 01:45:51;;;;;;;44.60;18.73;;;;;;;1.80;100.00;101065.84;5080796;28;20044;-54
2022/12/13 01:48:23;;;;;;;40.20;18.27;;;;;;;1.92;100.00;101074.50;5079098;28;20063;-50
2022/12/13 01:50:54;;;;;;;47.25;19.30;;;;;;;2.02;100.00;101061.34;5081295;28;20119;-51
2022/12/13 01:53:25;;;;;;;45.25;18.77;;;;;;;2.17;100.00;101070.56;5080541;28;20032;-50
2022/12/13 01:55:57;;;;;;;43.63;18.05;;;;;;;2.13;100.00;101061.25;5075131;28;20084;-54
2022/12/13 01:58:23;;;;;;;49.17;19.55;;;;;;;2.02;100.00;101061.34;5082354;28;20028;-53
2022/12/13 02:00:49;;;;;;;47.97;19.38;;;;;;;1.93;100.00;101060.34;5079958;28;20025;-50
2022/12/13 02:03:17;;;;;;;48.40;19.20;;;;;;;2.00;100.00;101061.47;5079646;28;20037;-48
2022/12/13 02:05:52;;;;;;;48.88;19.88;;;;;;;1.77;100.00;101051.13;5075736;28;20115;-53
2022/12/13 02:08:18;;;;;;;47.53;19.55;;;;;;;1.63;100.00;101056.75;5077528;28;20059;-47
2022/12/13 02:10:45;;;;;;;46.15;19.67;;;;;;;1.71;100.00;101051.66;5080507;28;20025;-51
2022/12/13 02:13:11;;;;;;;43.97;18.95;;;;;;;1.66;100.00;101059.13;5077310;28;20164;-50
2022/12/13 02:15:57;;;;;;;48.28;19.52;;;;;;;2.86;100.00;101060.09;5080922;28;20040;-50
2022/12/13 02:18:40;;;;;;;45.47;18.17;;;;;;;1.79;100.00;101061.53;5076665;28;20123;-47
2022/12/13 02:21:24;;;;;;;48.08;20.75;;;;;;;1.59;100.00;101066.72;5082789;28;20048;-49
2022/12/13 02:24:08;;;;;;;51.53;19.63;;;;;;;1.79;100.00;101061.53;5077938;28;20045;-51
2022/12/13 02:27:01;;;;;;;49.15;19.98;;;;;;;1.97;100.00;101064.38;5077539;28;20059;-52
2022/12/13 02:29:35;;;;;;;47.72;19.27;;;;;;;1.85;100.00;101063.66;5076570;28;20044;-53
2022/12/13 02:32:17;;;;;;;49.20;20.42;;;;;;;1.82;100.00;101058.63;5077085;28;20104;-49
2022/12/13 02:34:46;;;;;;;46.78;18.98;;;;;;;1.78;100.00;101057.25;5080485;28;20044;-48
2022/12/13 02:37:14;;;;;;;49.92;19.52;;;;;;;1.70;100.00;101055.25;5078621;28;20032;-53
2022/12/13 02:39:50;;;;;;;51.97;19.13;;;;;;;1.70;100.00;101052.63;5079758;28;20032;-51
2022/12/13 02:42:49;;;;;;;47.78;18.73;;;;;;;1.78;100.00;101047.50;5081746;28;20040;-51
2022/12/13 02:45:27;;;;;;;45.45;18.67;;;;;;;1.74;100.00;101053.22;5081664;28;20048;-50
2022/12/13 02:47:56;;;;;;;50.13;20.48;;;;;;;1.65;100.00;101042.47;5083246;28;20040;-48
2022/12/13 02:50:25;;;;;;;49.33;19.65;;;;;;;1.72;100.00;101048.88;5081393;28;20027;-52
2022/12/13 02:52:51;;;;;;;48.22;19.77;;;;;;;1.71;100.00;101049.00;5082256;28;20037;-52
2022/12/13 02:55:16;;;;;;;44.50;18.10;;;;;;;1.76;100.00;101038.91;5084008;28;20040;-56
2022/12/13 02:57:44;;;;;;;51.97;19.00;;;;;;;1.64;100.00;101032.88;5083976;28;20040;-56
2022/12/13 03:00:19;;;;;;;51.00;19.48;;;;;;;1.65;100.00;101031.91;5082157;28;20059;-51
2022/12/13 03:02:54;;;;;;;49.30;19.02;;;;;;;1.74;100.00;101032.94;5080684;28;20096;-47
2022/12/13 03:08:46;;;;;;;50.47;20.90;;;;;;;1.65;100.00;101037.19;5081462;28;20032;-54
2022/12/13 03:11:14;;;;;;;46.05;20.52;;;;;;;1.75;100.00;101034.59;5081158;28;20059;-51
2022/12/13 03:13:49;;;;;;;49.42;20.08;;;;;;;1.70;100.00;101040.25;5080357;28;20041;-51
2022/12/13 03:16:50;;;;;;;45.90;18.77;;;;;;;1.68;100.00;101041.38;5085083;28;20033;-48
2022/12/13 03:19:16;;;;;;;54.40;20.10;;;;;;;1.66;100.00;101041.50;5069701;28;20037;-47
2022/12/13 03:21:44;;;;;;;44.00;18.57;;;;;;;1.65;100.00;101039.81;5080526;28;20101;-50
2022/12/13 03:24:10;;;;;;;42.25;17.60;;;;;;;1.58;100.00;101042.16;5082844;28;20036;-50
2022/12/13 03:26:38;;;;;;;46.13;19.02;;;;;;;1.55;100.00;101039.78;5079854;28;20025;-52
2022/12/13 03:29:05;;;;;;;57.35;21.50;;;;;;;1.50;100.00;101041.97;5080952;28;20024;-50
2022/12/13 03:31:30;;;;;;;47.30;18.40;;;;;;;1.56;100.00;101038.00;5080458;28;20048;-49
2022/12/13 03:33:56;;;;;;;47.70;19.03;;;;;;;1.55;100.00;101039.78;5080209;28;20036;-50
2022/12/13 03:36:22;;;;;;;49.72;19.08;;;;;;;1.48;100.00;101041.28;5079404;28;20037;-51
2022/12/13 03:38:51;;;;;;;45.15;19.38;;;;;;;1.51;100.00;101035.75;5082912;28;20029;-50
2022/12/13 03:41:20;;;;;;;65.82;22.50;;;;;;;1.48;100.00;101043.06;5084034;28;20059;-48
2022/12/13 03:43:46;;;;;;;51.15;19.38;;;;;;;1.43;100.00;101039.03;5081144;28;20106;-49
2022/12/13 03:46:12;;;;;;;45.13;19.05;;;;;;;1.37;100.00;101030.78;5083610;28;20061;-51
2022/12/13 03:48:38;;;;;;;46.83;18.37;;;;;;;1.38;100.00;101030.69;5082285;28;20041;-51
2022/12/13 03:51:04;;;;;;;52.53;18.98;;;;;;;1.35;100.00;101030.94;5080875;28;20031;-52
2022/12/13 03:53:30;;;;;;;48.03;19.45;;;;;;;1.50;100.00;101028.78;5083506;28;20045;-50
2022/12/13 03:55:55;;;;;;;49.95;21.00;;;;;;;1.38;100.00;101033.31;5080340;28;20063;-51
2022/12/13 03:58:21;;;;;;;61.30;19.73;;;;;;;1.32;100.00;101033.84;5082491;28;20028;-51
2022/12/13 04:00:46;;;;;;;51.72;18.98;;;;;;;1.41;100.00;101024.31;5080050;28;20060;-52
2022/12/13 04:03:12;;;;;;;77.95;18.95;;;;;;;1.39;100.00;101036.78;5082606;28;20028;-55
2022/12/13 04:05:38;;;;;;;42.00;16.63;;;;;;;1.40;100.00;101030.56;5080938;28;20044;-50
2022/12/13 04:08:04;;;;;;;47.30;18.93;;;;;;;1.41;100.00;101034.88;5079946;28;20342;-50
2022/12/13 04:10:29;;;;;;;45.70;19.35;;;;;;;1.26;100.00;101040.47;5081291;28;20060;-50
2022/12/13 04:15:47;;;;;;;54.00;18.73;;;;;;;1.39;100.00;101039.44;5077404;28;20036;-51
2022/12/13 04:18:17;;;;;;;46.67;19.83;;;;;;;1.25;100.00;101038.78;5078887;28;20039;-48
2022/12/13 04:20:44;;;;;;;40.13;18.13;;;;;;;1.26;100.00;101036.97;5081040;28;20059;-51
2022/12/13 04:23:10;;;;;;;47.38;17.95;;;;;;;1.24;100.00;101036.28;5079943;28;20033;-48
2022/12/13 04:25:37;;;;;;;51.28;18.48;;;;;;;1.21;100.00;101034.75;5083475;28;20032;-50
2022/12/13 04:28:04;;;;;;;49.78;19.50;;;;;;;1.23;100.00;101032.81;5085335;28;20096;-52
2022/12/13 04:30:30;;;;;;;;;;;;;;;1.33;100.00;101032.03;5080457;28;20040;-52
2022/12/13 04:32:56;;;;;;;45.93;18.17;;;;;;;1.40;100.00;101022.66;5079287;28;19944;-50
2022/12/13 04:35:21;;;;;;;52.50;22.87;;;;;;;1.43;100.00;101023.22;5080669;28;20029;-53
2022/12/13 04:37:47;;;;;;;41.00;15.33;;;;;;;1.43;100.00;101017.13;5076478;28;20270;-53
2022/12/13 04:40:13;;;;;;;38.00;15.03;;;;;;;1.32;100.00;101017.19;5079371;28;20346;-49
2022/12/13 04:42:39;;;;;;;51.10;19.08;;;;;;;1.32;100.00;101025.09;5078647;28;20296;-49
2022/12/13 04:45:04;;;;;;;49.63;18.57;;;;;;;1.26;100.00;101022.00;5079248;28;20037;-53
2022/12/13 04:47:30;;;;;;;42.88;18.90;;;;;;;1.27;100.00;101014.97;5079113;28;20040;-51
2022/12/13 04:49:56;;;;;;;50.28;20.23;;;;;;;1.34;100.00;101023.16;5080829;28;20033;-52
2022/12/13 04:52:21;;;;;;;54.40;19.67;;;;;;;1.34;100.00;101010.81;5080472;28;20032;-52
2022/12/13 04:54:47;;;;;;;44.10;19.17;;;;;;;1.38;100.00;101006.97;5077508;28;20033;-52
2022/12/13 04:57:12;;;;;;;52.80;19.53;;;;;;;1.34;100.00;101007.34;5078869;28;20083;-50
2022/12/13 04:59:39;;;;;;;47.03;21.00;;;;;;;1.30;100.00;101012.06;5080355;28;20041;-52
2022/12/13 05:02:05;;;;;;;54.47;18.08;;;;;;;1.29;100.00;101013.03;5074508;28;20045;-47
2022/12/13 05:04:31;;;;;;;54.33;19.25;;;;;;;1.20;100.00;101008.50;5079794;28;20058;-50
2022/12/13 05:06:56;;;;;;;53.43;17.50;;;;;;;1.25;100.00;101009.81;5076990;28;20032;-52
2022/12/13 05:09:23;;;;;;;44.87;19.63;;;;;;;1.20;100.00;101004.09;5081736;28;20300;-52
2022/12/13 05:11:49;;;;;;;49.05;19.63;;;;;;;1.19;100.00;101002.44;5083758;28;20272;-50
2022/12/13 05:14:15;;;;;;;45.17;19.25;;;;;;;1.22;100.00;101002.16;5075122;28;20037;-50
2022/12/13 05:16:41;;;;;;;45.40;17.70;;;;;;;1.19;100.00;101005.06;5080848;28;20033;-51
2022/12/13 05:19:06;;;;;;;56.90;17.83;;;;;;;1.08;100.00;101003.34;5081690;28;20032;-49
2022/12/13 05:21:33;;;;;;;36.78;17.02;;;;;;;1.06;100.00;101005.25;5078010;28;20040;-55
2022/12/13 05:24:01;;;;;;;45.22;19.48;;;;;;;1.05;100.00;101000.97;5079505;28;20094;-51
2022/12/13 05:26:27;;;;;;;51.90;19.30;;;;;;;1.11;100.00;101002.22;5079683;28;20041;-52
2022/12/13 05:28:55;;;;;;;52.72;21.13;;;;;;;1.00;100.00;101001.34;5078112;28;20171;-50
2022/12/13 05:31:20;;;;;;;49.88;19.02;;;;;;;1.02;100.00;100987.19;5079915;28;20051;-52
2022/12/13 05:33:46;;;;;;;47.78;19.92;;;;;;;0.93;100.00;100994.06;5077554;28;20480;-51
2022/12/13 05:36:11;;;;;;;48.13;18.30;;;;;;;0.91;100.00;100993.38;5081023;28;20041;-49
2022/12/13 05:38:37;;;;;;;47.15;17.27;;;;;;;0.89;100.00;100996.13;5078110;28;20035;-52
2022/12/13 05:41:02;;;;;;;46.20;19.03;;;;;;;0.96;100.00;100994.66;5079051;28;20043;-50
2022/12/13 05:43:28;;;;;;;53.53;18.55;;;;;;;1.04;100.00;100991.38;5077022;28;20105;-50
2022/12/13 05:45:54;;;;;;;50.05;19.75;;;;;;;0.95;100.00;100987.72;5076712;28;20033;-52
2022/12/13 05:48:20;;;;;;;41.37;18.20;;;;;;;0.90;100.00;100979.34;5081227;28;20059;-49
2022/12/13 05:50:45;;;;;;;43.30;18.42;;;;;;;0.87;100.00;100982.25;5078874;28;20285;-49
2022/12/13 05:53:10;;;;;;;48.60;19.43;;;;;;;0.88;100.00;100981.28;5078706;28;20036;-52
2022/12/13 05:55:37;;;;;;;47.75;19.38;;;;;;;0.96;100.00;100984.13;5073172;28;20025;-51
2022/12/13 05:58:03;;;;;;;51.42;20.85;;;;;;;0.79;100.00;100974.97;5079263;28;20056;-52
2022/12/13 06:00:29;;;;;;;49.55;19.27;;;;;;;0.68;100.00;100973.25;5076911;28;20055;-48
2022/12/13 06:02:55;;;;;;;47.05;18.95;;;;;;;0.80;100.00;100975.81;5069332;28;20092;-51
2022/12/13 06:05:21;;;;;;;47.15;19.00;;;;;;;0.77;100.00;100981.34;5070665;28;20490;-49
2022/12/13 06:07:47;;;;;;;48.53;18.48;;;;;;;0.78;100.00;100980.41;5072661;28;20109;-50
2022/12/13 06:10:13;;;;;;;35.40;14.77;;;;;;;0.81;100.00;100977.50;5075716;28;20029;-53
2022/12/13 06:12:38;;;;;;;45.42;16.35;;;;;;;0.74;100.00;100974.53;5079485;28;20032;-48
2022/12/13 06:15:04;;;;;;;48.23;18.63;;;;;;;0.71;100.00;100975.66;5078508;28;20078;-47
2022/12/13 06:17:39;;;;;;;46.40;18.05;;;;;;;0.75;100.00;100976.19;5080200;28;20048;-51
2022/12/13 06:20:06;;;;;;;50.88;20.48;;;;;;;0.47;100.00;100977.66;5077259;28;20104;-49
2022/12/13 06:22:31;;;;;;;50.33;19.10;;;;;;;0.62;100.00;100971.13;5080273;28;20048;-48
2022/12/13 06:24:57;;;;;;;52.22;20.58;;;;;;;0.66;100.00;100969.91;5083196;28;20039;-48
2022/12/13 06:27:23;;;;;;;37.13;14.70;;;;;;;0.56;100.00;100967.19;5079752;28;20044;-52
2022/12/13 06:29:48;;;;;;;35.73;15.23;;;;;;;0.67;100.00;100963.69;5083531;28;20065;-53
2022/12/13 06:32:14;;;;;;;51.25;19.80;;;;;;;0.75;100.00;100970.94;5079820;28;20025;-48
2022/12/13 06:34:39;;;;;;;49.47;20.13;;;;;;;0.68;100.00;100970.59;5081877;28;20033;-49
2022/12/13 06:37:07;;;;;;;53.93;18.63;;;;;;;0.71;100.00;100974.78;5076861;28;20040;-49
2022/12/13 06:39:33;;;;;;;53.13;20.08;;;;;;;0.71;100.00;100980.06;5077992;28;20494;-46
2022/12/13 06:42:04;;;;;;;54.85;21.55;;;;;;;0.71;100.00;100977.44;5078011;28;20036;-50
2022/12/13 06:44:30;;;;;;;51.53;20.80;;;;;;;0.69;100.00;100979.34;5078853;28;20037;-54
2022/12/13 06:46:55;;;;;;;48.13;19.10;;;;;;;0.55;100.00;100975.22;5077442;28;20032;-50
2022/12/13 06:49:21;;;;;;;53.53;20.03;;;;;;;0.58;100.00;100977.59;5079257;28;20032;-52
2022/12/13 06:51:46;;;;;;;55.47;21.65;;;;;;;0.64;100.00;100973.63;5077795;28;20025;-53
2022/12/13 06:54:12;;;;;;;41.90;19.23;;;;;;;0.59;100.00;100976.66;5072903;28;20032;-54
2022/12/13 06:56:37;;;;;;;57.40;21.20;;;;;;;0.55;100.00;100975.22;5078190;28;20044;-51
2022/12/13 06:59:03;;;;;;;54.13;19.77;;;;;;;0.60;100.00;100980.94;5076797;28;20063;-52
2022/12/13 07:01:29;;;;;;;41.77;16.30;;;;;;;0.66;100.00;100972.53;5080075;28;20075;-54
2022/12/13 07:03:55;;;;;;;50.70;19.60;;;;;;;0.70;100.00;100967.84;5076724;28;20021;-48
2022/12/13 07:06:23;;;;;;;38.83;16.52;;;;;;;0.53;100.00;100972.72;5081932;28;20104;-49
2022/12/13 07:08:56;;;;;;;53.30;20.45;;;;;;;0.68;100.00;100975.88;5085515;28;20075;-50
2022/12/13 07:11:25;;;;;;;59.30;22.02;;;;;;;0.51;100.00;100979.09;5081692;28;20017;-49
2022/12/13 07:13:52;;;;;;;44.70;19.73;;;;;;;0.53;100.00;100977.16;5076374;28;20037;-51
2022/12/13 07:16:19;;;;;;;50.08;19.13;;;;;;;0.62;100.00;100976.38;5073880;28;20337;-53
2022/12/13 07:18:45;;;;;;;58.72;20.70;;;;;;;0.58;100.00;100974.97;5080101;28;20029;-48
2022/12/13 07:21:12;;;;;;;55.55;20.23;;;;;;;0.57;100.00;100979.38;5080306;28;20041;-51
2022/12/13 07:23:38;;;;;;;56.15;21.92;;;;;;;0.58;100.00;100977.59;5077544;28;20031;-50
2022/12/13 07:26:06;;;;;;;42.97;16.05;;;;;;;0.59;100.00;100987.16;5080957;28;20033;-51
2022/12/13 07:28:32;;;;;;;53.72;20.30;;;;;;;0.54;100.00;100986.72;5081890;28;20094;-48
2022/12/13 07:31:06;;;;;;;56.80;22.55;;;;;;;0.56;100.00;100987.44;5080759;28;20028;-54
2022/12/13 07:33:32;;;;;;;47.72;20.88;;;;;;;0.60;100.00;100983.56;5076164;28;20096;-52
2022/12/13 07:36:00;;;;;;;51.10;20.58;;;;;;;0.49;100.00;100992.34;5085956;28;20173;-51
2022/12/13 07:38:26;;;;;;;55.72;21.90;;;;;;;0.59;100.00;100986.34;5076250;28;20040;-49
2022/12/13 07:40:55;;;;;;;58.10;21.33;;;;;;;0.59;100.00;100994.25;5078162;28;20136;-51
2022/12/13 07:43:20;;;;;;;46.95;20.83;;;;;;;0.54;100.00;100997.25;5080075;28;20274;-55
2022/12/13 07:45:45;;;;;;;56.17;22.40;;;;;;;0.42;100.00;101002.53;5079625;28;20055;-54
2022/12/13 07:48:11;;;;;;;59.63;23.27;;;;;;;0.51;100.00;101002.78;5081624;28;20110;-50
2022/12/13 07:50:37;;;;;;;60.22;21.38;;;;;;;0.52;100.00;101012.34;5079248;28;20021;-53
2022/12/13 07:53:05;;;;;;;56.07;20.97;;;;;;;0.41;100.00;101013.22;5077113;28;20045;-53
2022/12/13 07:55:32;;;;;;;68.15;22.40;;;;;;;0.46;100.00;101012.81;5080681;28;20035;-52
2022/12/13 07:58:12;;;;;;;51.70;21.20;;;;;;;0.60;100.00;101019.59;5077158;28;20040;-49
2022/12/13 08:00:39;;;;;;;67.07;24.10;;;;;;;0.59;100.00;101020.56;5074733;28;20093;-49
2022/12/13 08:03:05;;;;;;;56.42;22.38;;;;;;;0.70;100.00;101025.78;5075395;28;20041;-49
2022/12/13 08:05:33;;;;;;;60.47;21.90;;;;;;;0.80;100.00;101015.31;5082448;28;20036;-51
2022/12/13 08:08:00;;;;;;;57.25;21.42;;;;;;;0.79;100.00;101014.47;5080693;28;20392;-48
2022/12/13 08:10:27;;;;;;;61.60;21.98;;;;;;;0.64;100.00;101021.84;5083039;28;20037;-53
2022/12/13 08:12:53;;;;;;;65.68;22.45;;;;;;;0.79;100.00;101013.66;5080539;28;20044;-51
2022/12/13 08:15:19;;;;;;;54.45;21.73;;;;;;;0.85;100.00;101014.00;5078664;28;20037;-52
2022/12/13 08:17:45;;;;;;;;;;;;;;;0.90;100.00;101016.22;5079030;28;20036;-50
2022/12/13 08:20:10;;;;;;;53.73;20.23;;;;;;;0.93;100.00;101010.72;5078901;28;19974;-54
2022/12/13 08:22:36;;;;;;;60.85;22.52;;;;;;;0.94;100.00;101020.28;5076609;28;20033;-50
2022/12/13 08:25:01;;;;;;;56.73;21.30;;;;;;;0.99;100.00;101014.63;5081672;28;20040;-54
2022/12/13 08:27:27;;;;;;;54.28;20.58;;;;;;;1.13;100.00;101006.41;5079804;28;20356;-51
2022/12/13 08:29:53;;;;;;;62.55;24.67;;;;;;;1.06;100.00;101007.91;5078120;28;20052;-52
2022/12/13 08:32:19;;;;;;;56.17;21.48;;;;;;;1.22;100.00;101015.34;5080445;28;20029;-53
2022/12/13 08:34:45;;;;;;;65.27;24.27;;;;;;;1.20;100.00;101012.00;5079133;28;20044;-50
2022/12/13 08:37:11;;;;;;;66.63;22.08;;;;;;;1.31;100.00;101012.88;5073320;28;20033;-53
2022/12/13 08:39:38;;;;;;;65.45;22.55;;;;;;;1.45;100.00;101009.91;5079541;28;20052;-50
2022/12/13 08:42:12;;;;;;;57.60;22.52;;;;;;;1.53;100.00;101014.53;5078910;28;20033;-49
2022/12/13 08:44:38;;;;;;;62.80;23.90;;;;;;;1.60;100.00;101020.09;5074008;28;20103;-48
2022/12/13 08:47:04;;;;;;;56.10;22.87;;;;;;;1.76;100.00;101024.91;5077834;28;20057;-50
2022/12/13 08:49:30;;;;;;;56.15;21.10;;;;;;;1.77;100.00;101031.84;5081042;28;20029;-56
2022/12/13 08:51:55;;;;;;;56.87;22.87;;;;;;;1.73;100.00;101041.81;5081500;28;20096;-51
2022/12/13 08:54:21;;;;;;;58.57;23.57;;;;;;;1.76;100.00;101043.34;5075748;28;20095;-52
2022/12/13 08:56:46;;;;;;;65.00;23.73;;;;;;;1.79;100.00;101036.00;5083044;28;20032;-49
2022/12/13 08:59:12;;;;;;;51.83;18.73;;;;;;;1.88;100.00;101031.72;5076621;28;20082;-52
2022/12/13 09:01:37;;;;;;;53.67;22.47;;;;;;;2.06;100.00;101033.72;5084542;28;20327;-52
2022/12/13 09:04:03;;;;;;;65.25;24.30;;;;;;;2.18;100.00;101031.81;5078352;28;20047;-51
2022/12/13 09:06:28;;;;;;;62.47;23.98;;;;;;;2.19;100.00;101029.06;5079504;28;20039;-53
2022/12/13 09:08:54;;;;;;;47.10;18.38;;;;;;;2.23;100.00;101040.16;5085094;28;20040;-49
2022/12/13 09:11:20;;;;;;;58.28;21.63;;;;;;;2.28;100.00;101043.22;5081869;28;20071;-49
2022/12/13 09:13:47;;;;;;;61.22;23.95;;;;;;;2.50;100.00;101041.31;5078634;28;20036;-53
2022/12/13 09:16:18;;;;;;;53.72;22.10;;;;;;;2.56;100.00;101041.59;5081201;28;20033;-50
2022/12/13 09:18:45;;;;;;;52.78;24.08;;;;;;;2.68;100.00;101042.31;5081688;28;20043;-49
2022/12/13 09:21:13;;;;;;;59.22;22.27;;;;;;;2.72;100.00;101054.25;5082713;28;20025;-55
2022/12/13 09:23:40;;;;;;;58.33;24.15;;;;;;;2.97;100.00;101049.38;5079215;28;20070;-53
2022/12/13 09:26:06;;;;;;;59.28;24.15;;;;;;;3.03;100.00;101047.19;5080392;28;20048;-53
2022/12/13 09:28:34;;;;;;;57.45;22.35;;;;;;;3.12;100.00;101048.97;5079799;28;20029;-52
2022/12/13 09:30:59;;;;;;;52.92;22.25;;;;;;;3.43;100.00;101048.75;5072547;28;20049;-52
2022/12/13 09:33:25;;;;;;;56.67;22.87;;;;;;;4.21;100.00;101047.59;5079123;28;20035;-50
2022/12/13 09:35:51;;;;;;;57.13;25.67;;;;;;;4.58;100.00;101059.91;5075670;28;20036;-51
2022/12/13 09:38:18;;;;;;;51.35;22.17;;;;;;;4.99;100.00;101054.16;5075847;28;20028;-50
2022/12/13 09:40:46;;;;;;;49.47;21.75;;;;;;;4.79;100.00;101060.59;5075891;28;20040;-53
2022/12/13 09:43:20;;;;;;;51.15;21.23;;;;;;;4.70;100.00;101063.19;5079264;28;20033;-53
2022/12/13 09:45:47;;;;;;;48.95;21.83;;;;;;;4.48;100.00;101059.13;5082842;28;20040;-52
2022/12/13 09:48:19;;;;;;;54.88;21.40;;;;;;;4.22;100.00;101043.16;5082944;28;20039;-54
2022/12/13 09:50:46;;;;;;;48.20;20.95;;;;;;;4.12;100.00;101044.03;5082068;28;20028;-50
2022/12/13 09:53:15;;;;;;;46.47;21.30;;;;;;;4.33;100.00;101034.97;5080900;28;20024;-54
2022/12/13 09:55:43;;;;;;;56.88;22.20;;;;;;;4.53;100.00;101038.34;5083536;28;20039;-54
2022/12/13 09:58:30;;;;;;;54.22;21.92;;;;;;;4.67;100.00;101037.00;5080285;28;20029;-56
2022/12/13 10:00:57;;;;;;;49.08;21.20;;;;;;;4.92;100.00;101026.59;5083248;28;20048;-50
2022/12/13 10:03:24;;;;;;;54.63;22.58;;;;;;;5.14;100.00;101032.41;5083107;28;20058;-53
2022/12/13 10:05:57;;;;;;;;;;;;;;;5.20;100.00;101029.13;5080563;28;20043;-50
2022/12/13 10:08:30;;;;;;;54.80;20.73;;;;;;;5.57;100.00;101022.72;5078442;28;19913;-51
2022/12/13 10:10:56;;;;;;;51.85;22.33;;;;;;;5.38;100.00;101022.94;5081013;28;20044;-50
2022/12/13 10:13:33;;;;;;;44.10;19.88;;;;;;;5.37;100.00;101016.78;5080720;28;20058;-51
2022/12/13 10:16:06;;;;;;;42.70;21.10;;;;;;;5.56;100.00;101010.44;5080446;28;20357;-53
2022/12/13 10:18:35;;;;;;;42.63;18.65;;;;;;;5.55;100.00;101007.94;5080012;28;20044;-52
2022/12/13 10:21:03;;;;;;;46.00;20.27;;;;;;;5.65;100.00;101005.16;5082828;28;20041;-55
2022/12/13 10:23:29;;;;;;;42.78;20.25;;;;;;;6.23;100.00;101006.22;5084218;28;20037;-53
2022/12/13 10:25:55;;;;;;;47.43;20.30;;;;;;;6.84;100.00;101008.63;5080643;28;20061;-53
2022/12/13 10:28:32;;;;;;;41.97;19.67;;;;;;;6.51;100.00;101007.78;5084840;28;20035;-54
2022/12/13 10:30:59;;;;;;;38.33;17.65;;;;;;;6.48;100.00;100994.81;5079765;28;20066;-55
2022/12/13 10:33:29;;;;;;;46.00;19.52;;;;;;;6.80;100.00;100996.66;5079319;28;20048;-54
2022/12/13 10:36:15;;;;;;;43.97;18.77;;;;;;;7.50;100.00;100991.72;5077488;28;20029;-56
2022/12/13 10:38:44;;;;;;;42.45;18.67;;;;;;;7.65;100.00;100986.50;5077573;28;20025;-54
2022/12/13 10:41:34;;;;;;;41.38;20.05;;;;;;;8.11;98.84;100990.28;5078419;28;20037;-51
2022/12/13 10:44:10;;;;;;;42.03;18.83;;;;;;;7.67;97.79;100981.03;5081261;28;20040;-56
2022/12/13 10:46:41;;;;;;;39.95;17.00;;;;;;;6.89;93.51;100987.69;5082072;28;20025;-55
2022/12/13 10:49:26;;;;;;;40.65;18.70;;;;;;;8.72;91.15;100985.06;5081783;28;20067;-53
2022/12/13 10:51:53;;;;;;;39.63;18.23;;;;;;;8.84;87.25;100982.78;5079184;28;20072;-54
2022/12/13 10:54:32;;;;;;;45.58;18.85;;;;;;;9.78;81.31;100977.97;5082208;28;20029;-53
2022/12/13 10:57:01;;;;;;;34.20;16.65;;;;;;;9.58;75.73;100967.84;5082210;28;20094;-54
2022/12/13 10:59:33;;;;;;;32.22;16.30;;;;;;;8.22;80.71;100973.91;5080251;28;20040;-55
2022/12/13 11:02:19;;;;;;;37.50;16.25;;;;;;;7.37;83.39;100962.16;5081768;28;20041;-52
2022/12/13 11:04:45;;;;;;;34.42;17.02;;;;;;;7.29;87.83;100974.47;5079198;28;20047;-51
2022/12/13 11:07:28;;;;;;;37.47;16.33;;;;;;;7.20;87.79;100970.19;5079005;28;20041;-52
2022/12/13 11:09:54;;;;;;;39.60;17.73;;;;;;;8.01;85.45;100969.19;5077163;28;20071;-52
2022/12/13 11:12:22;;;;;;;;;;;;;;;9.47;79.48;100965.66;5083649;28;20047;-53
2022/12/13 11:15:00;;;;;;;37.67;16.52;;;;;;;10.23;69.59;100967.16;5077591;28;19913;-51
2022/12/13 11:17:29;;;;;;;34.13;15.77;;;;;;;10.98;66.18;100972.16;5081704;28;20044;-53
2022/12/13 11:19:59;;;;;;;34.20;16.37;;;;;;;11.46;62.01;100973.28;5082136;28;20051;-53
2022/12/13 11:22:29;;;;;;;37.20;18.07;;;;;;;12.03;59.87;100970.47;5079938;28;20278;-54